ADDS METAR Data INFO
IDs: Format: Raw Decoded Include TAF

Data at: 0218 UTC 18 Jan 2018

PACM 180156Z AUTO 10SM OVC014 M07/M09 A2970 RMK AO2 SLP052 T10721089 FZRANO $
PACM 180056Z AUTO 10SM OVC012 M07/M09 A2969 RMK AO2 SLP049 T10671089 FZRANO $
PACM 172356Z AUTO 10SM OVC012 M07/M09 A2968 RMK AO2 SLP048 60004 T10671089 11067 21067 50000 FZRANO $
PACM 172256Z AUTO 10SM OVC012 M07/M09 A2969 RMK AO2 SLP049 T10671089 FZRANO $
PACM 172156Z AUTO 10SM OVC012 M07/M08 A2968 RMK AO2 SNB36E46 SLP048 P0000 T10671083 FZRANO $
PACM 172056Z AUTO 10SM OVC014 M07/M09 A2968 RMK AO2 SLP047 60004 T10671089 51013 FZRANO $
PACM 171956Z AUTO 10SM OVC012 M07/M09 A2967 RMK AO2 SLP043 T10671089 FZRANO $
PACM 171856Z AUTO 10SM OVC014 M07/M08 A2966 RMK AO2 SLP039 P0004 T10671083 FZRANO $
PACM 171756Z AUTO 10SM OVC014 M07/M08 A2964 RMK AO2 SLP034 60000 T10671083 11050 21067 53005 FZRANO $
PACM 171656Z AUTO 10SM OVC014 M07/M08 A2964 RMK AO2 SLP032 T10671083 FZRANO $
PACM 171556Z AUTO 10SM OVC014 M07/M08 A2963 RMK AO2 SLP030 T10671083 FZRANO $
PACM 171456Z AUTO 10SM OVC012 M07/M08 A2963 RMK AO2 SLP030 60000 T10671083 51006 FZRANO $
PACM 171356Z AUTO 10SM OVC010 M07/M08 A2963 RMK AO2 UPE00 SLP030 P0000 T10671078 FZRANO $
PACM 171307Z AUTO 10SM OVC010 M06/M07 A2963 RMK AO2 UPE00 CIG 008V012 P0000 FZRANO $
PACM 171256Z AUTO 8SM UP OVC008 M06/M07 A2963 RMK AO2 UPB25SNB12E25 CIG 006V011 SLP031 P0000 T10611072 FZRANO $
PACM 171156Z AUTO 8SM OVC008 M05/M06 A2961 RMK AO2 SNB39E55 CIG 007V011 SLP024 P0000 60000 70001 T10501061 11033 21050 53003 FZRANO $
PACM 171056Z AUTO 10SM BKN008 OVC011 M04/M06 A2960 RMK AO2 UPB49E52SNB40E49 CIG 006V010 SLP018 P0000 T10441056 FZRANO $
PACM 170956Z AUTO 10SM OVC012 M05/M06 A2960 RMK AO2 SLP019 T10501061 FZRANO $
PACM 170856Z AUTO 10SM OVC010 M04/M06 A2960 RMK AO2 CIG 007V011 SLP021 60000 T10441056 400061044 53016 FZRANO $
PACM 170849Z AUTO 10SM OVC010 M04/M06 A2960 RMK AO2 CIG 007V011 FZRANO $
PACM 170756Z AUTO 10SM OVC008 M04/M05 A2958 RMK AO2 CIG 005V012 SLP012 T10391050 FZRANO $
PACM 170656Z AUTO 10SM BKN006 OVC011 M03/M04 A2957 RMK AO2 UPB17E24SNB07E17 SLP008 P0000 T10331044 FZRANO $
PACM 170556Z AUTO 6SM BR OVC006 M03/M04 A2956 RMK AO2 UPE0458SNB0458E49 CIG 005V011 SLP005 P0000 60000 T10331039 11028 21033 50005 FZRANO $
PACM 170456Z AUTO 3SM UP BR OVC008 M03/M04 A2957 RMK AO2 UPB39SNE39 CIG 005V010 SLP008 P0000 T10331039 FZRANO $
PACM 170421Z AUTO 3SM -SN BR BKN008 OVC012 M03/M03 A2956 RMK AO2 CIG 006V011 P0000 FZRANO $
PACM 170356Z AUTO 3SM -SN BR SCT006 OVC013 M03/M03 A2955 RMK AO2 SLP003 P0000 T10281033 FZRANO $
PACM 170346Z AUTO 2 1/2SM -SN BR BKN008 OVC013 M03/M03 A2955 RMK AO2 VIS 1 3/4V4 CIG 005V009 P0000 FZRANO $
PACM 170313Z AUTO 3SM -SN BR OVC006 M03/M03 A2954 RMK AO2 CIG 005V010 P0000 FZRANO $
PACM 170306Z AUTO 2 1/2SM -SN BR OVC006 M03/M03 A2954 RMK AO2 CIG 005V009 P0000 FZRANO $
PACM 170256Z AUTO 1 3/4SM -SN BR OVC006 M03/M03 A2954 RMK AO2 CIG 005V009 SLP000 P0000 60000 T10281033 53003 FZRANO $
PACM 170244Z AUTO 2 1/2SM -SN BR OVC006 M03/M03 A2954 RMK AO2 VIS 2V3 P0000 FZRANO $
PACM 170207Z AUTO 3SM -SN BR OVC008 M03/M04 A2954 RMK AO2 CIG 005V011 P0000 FZRANO $
PACM 170156Z AUTO 1 1/2SM -SN BR OVC008 M03/M04 A2954 RMK AO2 CIG 005V010 SLP999 P0000 T10331039 FZRANO $
PACM 170148Z AUTO 2SM -SN BR OVC008 M03/M04 A2954 RMK AO2 CIG 005V010 P0000 FZRANO $
PACM 170120Z AUTO 1 1/2SM -SN BR OVC008 M03/M04 A2954 RMK AO2 CIG 005V010 P0000 FZRANO $
PACM 170056Z AUTO 1SM -SN BR OVC008 M03/M04 A2954 RMK AO2 CIG 005V010 SLP998 P0000 T10331039 FZRANO $
PACM 170048Z AUTO 3/4SM -SN BR OVC008 M03/M04 A2953 RMK AO2 CIG 005V010 P0000 FZRANO $
PACM 170016Z AUTO 1SM -SN BR OVC006 M03/M03 A2954 RMK AO2 CIG 006V010 P0000 FZRANO $
PACM 162356Z AUTO 1 1/4SM -SN BR OVC006 M03/M03 A2953 RMK AO2 CIG 005V011 SLP996 P0000 60000 T10281033 11006 21028 53006 FZRANO $
PACM 162322Z AUTO 1 1/2SM -SN BR OVC006 M03/M03 A2952 RMK AO2 CIG 005V010 P0000 FZRANO $
PACM 162256Z AUTO 1SM -SN BR OVC006 M02/M03 A2952 RMK AO2 CIG 004V008 SLP991 P0000 T10221028 FZRANO $
PACM 162243Z AUTO 3/4SM -SN BR OVC004 M02/M02 A2952 RMK AO2 CIG 003V007 P0000 FZRANO $
PACM 162232Z AUTO 1 1/2SM -SN BR OVC004 M02/M02 A2952 RMK AO2 P0000 FZRANO $
PACM 162222Z AUTO 1SM -SN BR OVC002 M02/M02 A2952 RMK AO2 P0000 FZRANO $
PACM 162210Z AUTO 1/2SM -SN FZFG OVC002 M02/M02 A2952 RMK AO2 P0000 FZRANO $
PACM 162156Z AUTO 3/4SM -SN BR OVC002 M02/M02 A2952 RMK AO2 SLP992 P0000 T10171022 FZRANO $
PACM 162142Z AUTO 3/4SM -SN BR OVC002 M02/M02 A2952 RMK AO2 P0000 FZRANO $
PACM 162056Z AUTO 1/2SM -SN FZFG OVC002 M02/M02 A2951 RMK AO2 SLP990 P0000 60000 T10171022 53011 FZRANO $
PACM 162035Z AUTO 1/2SM -SN FZFG OVC002 M02/M02 A2951 RMK AO2 P0000 FZRANO $
PACM 162005Z AUTO 3/4SM -SN BR OVC002 M02/M02 A2950 RMK AO2 P0000 FZRANO $
PACM 161956Z AUTO 1SM -SN BR BKN002 OVC015 M02/M02 A2950 RMK AO2 SNB01 SLP984 P0000 T10171022 FZRANO $
PACM 161952Z AUTO 1 3/4SM -SN BR BKN002 OVC015 M02/M02 A2950 RMK AO2 SNB01 P0000 FZRANO $
PACM 161927Z AUTO 3SM -SN BR BKN002 OVC015 M02/M02 A2949 RMK AO2 SNB01 P0000 FZRANO $
PACM 161908Z AUTO 1 1/2SM -SN BR BKN002 BKN008 OVC016 M02/M02 A2949 RMK AO2 SNB01 P0000 FZRANO $
PACM 161900Z AUTO 1 3/4SM BR SCT002 BKN008 OVC016 M01/M02 A2948 RMK AO2 FZRANO $
PACM 161856Z AUTO 3SM BR FEW002 BKN008 OVC016 M01/M02 A2948 RMK AO2 SLP979 T10111017 FZRANO $
PACM 161823Z AUTO 10SM SCT004 OVC008 M01/M02 A2948 RMK AO2 CIG 006V010 FZRANO $
PACM 161756Z AUTO 10SM BKN004 OVC010 M01/M01 A2947 RMK AO2 SLP976 60001 T10061011 10000 21006 53010 FZRANO $
PACM 161723Z AUTO 10SM BKN006 OVC048 00/M01 A2946 RMK AO2 FZRANO $
PACM 161715Z AUTO 10SM SCT006 OVC048 00/M01 A2946 RMK AO2 FZRANO $
PACM 161656Z AUTO 7SM OVC048 00/M01 A2945 RMK AO2 SNB02E30 SLP968 P0000 T00001006 FZRANO $
PACM 161631Z AUTO 6SM BR FEW002 OVC048 M01/M01 A2944 RMK AO2 SNB02E30 P0000 FZRANO $
PACM 161622Z AUTO 16015KT 2SM -SN BR SCT002 OVC046 M01/M01 A2944 RMK AO2 SNB02 P0000 FZRANO
PACM 161605Z AUTO 17011G15KT 060V200 1 3/4SM -SN BR OVC002 M01/M01 A2944 RMK AO2 SNB02 P0000 FZRANO
PACM 161556Z AUTO 16014KT 4SM BR OVC002 M01/M01 A2944 RMK AO2 SLP965 T10061011 FZRANO
PACM 161549Z AUTO 15011KT 7SM OVC002 M01/M01 A2944 RMK AO2 FZRANO
PACM 161456Z AUTO 14011KT 10SM BKN004 OVC039 00/M01 A2944 RMK AO2 UPE07B23E56SNB07E23 SLP965 P0001 60001 T00001006 50004 FZRANO